Time;durP1;ratioP1;P1;durP2;ratioP2;P2;SDS_P1;SDS_P2;PMS_P1;PMS_P2;Temp;Humidity;BMP_temperature;BMP_pressure;BME280_temperature;BME280_humidity;BME280_pressure;Samples;Min_cycle;Max_cycle;Signal;HPM_P1;HPM_P2
2023/05/09 00:01:46;;;;;;;16.20;10.50;;;15.70;99.90;;;;;;5114773;28;20204;-50
2023/05/09 00:04:12;;;;;;;15.13;10.23;;;15.60;99.90;;;;;;5114737;28;20198;-53
2023/05/09 00:06:37;;;;;;;16.30;10.00;;;15.60;99.90;;;;;;5114746;28;20642;-51
2023/05/09 00:09:06;;;;;;;15.43;10.33;;;15.60;99.90;;;;;;5114630;28;20582;-52
2023/05/09 00:11:32;;;;;;;14.07;10.30;;;15.50;99.90;;;;;;5114395;28;20207;-52
2023/05/09 00:13:58;;;;;;;15.57;10.53;;;15.60;99.90;;;;;;5114180;28;20754;-50
2023/05/09 00:16:23;;;;;;;14.40;9.90;;;15.50;99.90;;;;;;5114267;28;20706;-52
2023/05/09 00:18:49;;;;;;;13.83;9.50;;;15.50;99.90;;;;;;5114197;28;20202;-50
2023/05/09 00:21:15;;;;;;;13.50;10.07;;;15.40;99.90;;;;;;5114429;28;20264;-50
2023/05/09 00:23:41;;;;;;;13.40;10.30;;;15.40;99.90;;;;;;5112346;28;20202;-51
2023/05/09 00:26:06;;;;;;;14.03;9.37;;;15.40;99.90;;;;;;5114320;28;20655;-51
2023/05/09 00:28:32;;;;;;;14.07;10.00;;;15.40;99.90;;;;;;5114078;28;20234;-52
2023/05/09 00:30:58;;;;;;;15.00;9.97;;;15.40;99.90;;;;;;5114357;28;20213;-50
2023/05/09 00:33:26;;;;;;;17.10;10.17;;;15.40;99.90;;;;;;5114764;28;20262;-49
2023/05/09 00:35:53;;;;;;;13.87;10.07;;;15.40;99.90;;;;;;5113971;28;20553;-51
2023/05/09 00:38:18;;;;;;;15.93;9.60;;;15.40;99.90;;;;;;5114195;28;20198;-52
2023/05/09 00:40:44;;;;;;;15.47;9.60;;;15.40;99.90;;;;;;5113959;28;20186;-49
2023/05/09 00:43:10;;;;;;;14.73;9.53;;;15.40;99.90;;;;;;5113880;28;20202;-52
2023/05/09 00:45:35;;;;;;;16.33;10.27;;;15.40;99.90;;;;;;5113778;28;20520;-52
2023/05/09 00:48:01;;;;;;;13.50;10.07;;;15.40;99.90;;;;;;5113780;28;20178;-51
2023/05/09 00:50:27;;;;;;;14.60;10.33;;;15.40;99.90;;;;;;5113812;28;20178;-52
2023/05/09 00:52:52;;;;;;;15.30;10.60;;;15.30;99.90;;;;;;5113652;28;20229;-52
2023/05/09 00:55:18;;;;;;;16.50;10.57;;;15.30;99.90;;;;;;5113765;28;20276;-51
2023/05/09 00:57:44;;;;;;;16.10;10.83;;;15.30;99.90;;;;;;5113665;28;20293;-52
2023/05/09 01:00:11;;;;;;;14.20;10.20;;;15.30;99.90;;;;;;5113786;28;20174;-51
2023/05/09 01:02:40;;;;;;;13.77;9.60;;;15.20;99.90;;;;;;5113617;28;20266;-51
2023/05/09 01:05:06;;;;;;;18.33;11.03;;;15.20;99.90;;;;;;5113751;28;20223;-52
2023/05/09 01:07:37;;;;;;;13.20;9.47;;;15.20;99.90;;;;;;5113704;28;20178;-52
2023/05/09 01:10:20;;;;;;;14.77;10.17;;;15.20;99.90;;;;;;5114030;28;20170;-51
2023/05/09 01:12:48;;;;;;;15.20;9.70;;;15.20;99.90;;;;;;5113971;28;20281;-46
2023/05/09 01:15:32;;;;;;;20.60;10.90;;;15.10;99.90;;;;;;5113804;28;20174;-45
2023/05/09 01:18:04;;;;;;;14.33;9.80;;;15.20;99.90;;;;;;5113623;28;20275;-46
2023/05/09 01:20:44;;;;;;;14.20;9.87;;;15.10;99.90;;;;;;5114014;28;20163;-45
2023/05/09 01:23:38;;;;;;;14.17;9.33;;;15.10;99.90;;;;;;5113867;28;20262;-45
2023/05/09 01:26:07;;;;;;;11.80;8.70;;;15.10;99.90;;;;;;5113883;28;20253;-46
2023/05/09 01:29:07;;;;;;;12.60;9.30;;;15.10;99.90;;;;;;5113569;28;20178;-45
2023/05/09 01:31:39;;;;;;;16.87;10.40;;;15.10;99.90;;;;;;5113744;28;20642;-45
2023/05/09 01:34:06;;;;;;;14.30;9.97;;;15.10;99.90;;;;;;5113713;28;20217;-46
2023/05/09 01:36:33;;;;;;;14.77;10.17;;;15.00;99.90;;;;;;5115359;28;20229;-46
2023/05/09 01:39:00;;;;;;;15.10;10.40;;;15.10;99.90;;;;;;5117902;28;20206;-46
2023/05/09 01:41:29;;;;;;;14.80;9.80;;;15.00;99.90;;;;;;5118510;28;20261;-45
2023/05/09 01:43:57;;;;;;;14.03;9.43;;;15.00;99.90;;;;;;5119329;28;20201;-46
2023/05/09 01:46:25;;;;;;;13.00;9.63;;;15.10;99.90;;;;;;5126510;28;20189;-46
2023/05/09 01:48:52;;;;;;;14.07;9.90;;;15.00;99.90;;;;;;5130351;28;20201;-47
2023/05/09 01:51:19;;;;;;;13.03;9.80;;;15.00;99.90;;;;;;5121648;28;20182;-45
2023/05/09 01:53:46;;;;;;;15.93;10.17;;;15.00;99.90;;;;;;5117483;28;20206;-47
2023/05/09 01:56:12;;;;;;;13.53;9.03;;;15.10;99.90;;;;;;5117110;28;20189;-45
2023/05/09 01:58:39;;;;;;;13.97;9.70;;;15.00;99.90;;;;;;5117322;28;20206;-46
2023/05/09 02:01:05;;;;;;;12.90;9.20;;;15.10;99.90;;;;;;5117160;28;20195;-46
2023/05/09 02:03:33;;;;;;;13.13;9.03;;;15.10;99.90;;;;;;5117065;28;20243;-46
2023/05/09 02:05:59;;;;;;;11.40;8.63;;;15.10;99.90;;;;;;5115485;28;20650;-46
2023/05/09 02:08:26;;;;;;;13.37;9.30;;;15.10;99.90;;;;;;5116833;28;20191;-46
2023/05/09 02:10:52;;;;;;;12.87;8.97;;;15.10;99.90;;;;;;5116657;28;20193;-47
2023/05/09 02:13:17;;;;;;;12.87;9.13;;;15.10;99.90;;;;;;5117016;28;20569;-46
2023/05/09 02:15:44;;;;;;;14.80;9.43;;;15.10;99.90;;;;;;5116854;28;20174;-46
2023/05/09 02:18:09;;;;;;;16.10;9.33;;;15.10;99.90;;;;;;5117067;28;20217;-45
2023/05/09 02:20:35;;;;;;;12.03;9.00;;;15.10;99.90;;;;;;5116827;28;20178;-46
2023/05/09 02:23:01;;;;;;;12.80;9.17;;;15.10;99.90;;;;;;5117154;28;20278;-46
2023/05/09 02:25:27;;;;;;;15.50;8.87;;;15.10;99.90;;;;;;5117005;28;20536;-46
2023/05/09 02:27:55;;;;;;;12.90;9.23;;;15.10;99.90;;;;;;5117192;28;20178;-45
2023/05/09 02:30:24;;;;;;;14.47;9.23;;;15.10;99.90;;;;;;5116860;28;20576;-45
2023/05/09 02:32:53;;;;;;;11.43;8.50;;;15.10;99.90;;;;;;5116662;28;20210;-47
2023/05/09 02:35:20;;;;;;;11.83;9.23;;;15.10;99.90;;;;;;5117005;28;20189;-46
2023/05/09 02:37:47;;;;;;;11.93;8.63;;;15.10;99.90;;;;;;5116133;28;20224;-46
2023/05/09 02:40:13;;;;;;;13.00;8.97;;;15.10;99.90;;;;;;5117271;28;20515;-46
2023/05/09 02:42:39;;;;;;;11.30;8.47;;;15.10;99.90;;;;;;5116147;28;20281;-46
2023/05/09 02:45:06;;;;;;;12.57;8.77;;;15.00;99.90;;;;;;5116400;28;20221;-46
2023/05/09 02:47:31;;;;;;;15.37;9.13;;;15.10;99.90;;;;;;5115681;28;20182;-46
2023/05/09 02:49:57;;;;;;;13.57;8.87;;;15.10;99.90;;;;;;5116408;28;20235;-45
2023/05/09 02:52:23;;;;;;;12.23;9.00;;;15.00;99.90;;;;;;5115977;28;20210;-47
2023/05/09 02:54:48;;;;;;;18.57;10.03;;;15.00;99.90;;;;;;5116016;28;20182;-48
2023/05/09 02:57:14;;;;;;;13.80;9.90;;;15.00;99.90;;;;;;5115981;28;20188;-46
2023/05/09 02:59:40;;;;;;;16.17;10.53;;;15.00;99.90;;;;;;5116252;28;20190;-46
2023/05/09 03:02:05;;;;;;;15.83;10.80;;;15.00;99.90;;;;;;5116031;28;20165;-45
2023/05/09 03:04:31;;;;;;;14.00;10.83;;;14.90;99.90;;;;;;5116008;28;20182;-45
2023/05/09 03:06:56;;;;;;;16.83;10.87;;;14.90;99.90;;;;;;5115935;28;20170;-47
2023/05/09 03:09:22;;;;;;;15.77;10.47;;;14.90;99.90;;;;;;5116193;28;20593;-47
2023/05/09 03:11:48;;;;;;;14.43;10.93;;;14.90;99.90;;;;;;5115903;28;20174;-48
2023/05/09 03:14:14;;;;;;;14.73;9.30;;;14.90;99.90;;;;;;5115873;28;20276;-45
2023/05/09 03:16:40;;;;;;;14.73;10.33;;;14.90;99.90;;;;;;5114297;28;20209;-47
2023/05/09 03:19:05;;;;;;;14.70;9.53;;;14.90;99.90;;;;;;5115328;28;20206;-46
2023/05/09 03:21:31;;;;;;;13.67;9.83;;;14.90;99.90;;;;;;5115219;28;20542;-46
2023/05/09 03:23:57;;;;;;;13.93;9.83;;;14.90;99.90;;;;;;5115460;28;20273;-44
2023/05/09 03:26:23;;;;;;;14.70;10.13;;;14.90;99.90;;;;;;5115160;28;20181;-46
2023/05/09 03:28:48;;;;;;;14.70;9.90;;;14.90;99.90;;;;;;5115156;28;20175;-45
2023/05/09 03:31:14;;;;;;;15.43;9.97;;;14.90;99.90;;;;;;5115203;28;20258;-46
2023/05/09 03:33:40;;;;;;;15.27;10.37;;;14.90;99.90;;;;;;5115064;28;20293;-46
2023/05/09 03:36:06;;;;;;;16.73;10.60;;;14.90;99.90;;;;;;5115323;28;20225;-47
2023/05/09 03:38:32;;;;;;;14.17;9.70;;;15.00;99.90;;;;;;5115209;28;20201;-47
2023/05/09 03:40:57;;;;;;;16.27;9.37;;;14.90;99.90;;;;;;5114961;28;20182;-47
2023/05/09 03:43:23;;;;;;;12.83;8.57;;;14.90;99.90;;;;;;5114824;28;20213;-46
2023/05/09 03:45:48;;;;;;;15.27;10.33;;;14.90;99.90;;;;;;5114827;28;20666;-46
2023/05/09 03:48:15;;;;;;;13.90;10.27;;;14.90;99.90;;;;;;5114742;28;20548;-48
2023/05/09 03:50:40;;;;;;;16.70;10.73;;;14.90;99.90;;;;;;5114767;28;20583;-47
2023/05/09 03:53:06;;;;;;;17.17;11.63;;;14.90;99.90;;;;;;5115012;28;20190;-46
2023/05/09 03:55:32;;;;;;;15.50;11.10;;;14.90;99.90;;;;;;5114667;28;20178;-47
2023/05/09 03:57:57;;;;;;;15.80;11.60;;;14.90;99.90;;;;;;5114493;28;20630;-45
2023/05/09 04:00:25;;;;;;;15.63;10.67;;;14.90;99.90;;;;;;5113965;28;20178;-46
2023/05/09 04:02:51;;;;;;;17.33;11.30;;;14.90;99.90;;;;;;5114534;28;20701;-45
2023/05/09 04:05:17;;;;;;;17.73;11.73;;;14.90;99.90;;;;;;5114460;28;20178;-45
2023/05/09 04:07:42;;;;;;;15.57;11.67;;;14.90;99.90;;;;;;5113245;28;20235;-47
2023/05/09 04:10:08;;;;;;;17.30;12.13;;;14.90;99.90;;;;;;5114382;28;20182;-46
2023/05/09 04:12:34;;;;;;;19.30;12.20;;;14.90;99.90;;;;;;5114237;28;20209;-47
2023/05/09 04:15:00;;;;;;;18.27;11.70;;;14.80;99.90;;;;;;5114602;28;20175;-46
2023/05/09 04:17:25;;;;;;;19.23;12.83;;;14.90;99.90;;;;;;5115304;28;20231;-46
2023/05/09 04:19:51;;;;;;;16.07;11.73;;;14.90;99.90;;;;;;5114250;28;20522;-52
2023/05/09 04:22:17;;;;;;;17.37;11.97;;;14.90;99.90;;;;;;5114346;28;20193;-52
2023/05/09 04:24:42;;;;;;;18.33;11.90;;;14.90;99.90;;;;;;5114067;28;20171;-49
2023/05/09 04:27:08;;;;;;;21.77;11.87;;;14.90;99.90;;;;;;5114124;28;20176;-53
2023/05/09 04:29:34;;;;;;;17.43;11.60;;;14.90;99.90;;;;;;5114150;28;20166;-51
2023/05/09 04:32:00;;;;;;;19.97;13.40;;;14.90;99.90;;;;;;5114434;28;20181;-51
2023/05/09 04:34:26;;;;;;;21.60;12.70;;;14.90;99.90;;;;;;5114260;28;20552;-51
2023/05/09 04:36:52;;;;;;;15.73;12.17;;;14.90;99.90;;;;;;5113856;28;20183;-50
2023/05/09 04:39:18;;;;;;;16.80;11.70;;;14.90;99.90;;;;;;5114631;28;20197;-52
2023/05/09 04:41:46;;;;;;;17.87;12.00;;;14.90;99.90;;;;;;5113896;28;20166;-51
2023/05/09 04:44:12;;;;;;;17.33;12.57;;;15.00;99.90;;;;;;5113943;28;20721;-52
2023/05/09 04:46:38;;;;;;;19.27;13.03;;;15.00;99.90;;;;;;5113783;28;20178;-52
2023/05/09 04:49:04;;;;;;;18.43;11.77;;;15.00;99.90;;;;;;5114042;28;20595;-52
2023/05/09 04:51:29;;;;;;;19.87;12.87;;;15.00;99.90;;;;;;5114046;28;20185;-51
2023/05/09 04:53:55;;;;;;;19.47;12.90;;;15.00;99.90;;;;;;5113727;28;20577;-52
2023/05/09 04:56:21;;;;;;;18.70;13.47;;;15.10;99.90;;;;;;5113718;28;20657;-52
2023/05/09 04:58:47;;;;;;;19.50;13.27;;;15.10;99.90;;;;;;5113883;28;20226;-51
2023/05/09 05:01:13;;;;;;;19.77;13.53;;;15.20;99.90;;;;;;5113655;28;20220;-52
2023/05/09 05:03:38;;;;;;;20.27;13.47;;;15.20;99.90;;;;;;5113606;28;20654;-52
2023/05/09 05:06:04;;;;;;;20.53;13.03;;;15.30;99.90;;;;;;5113883;28;20265;-53
2023/05/09 05:08:30;;;;;;;19.73;12.87;;;15.30;99.90;;;;;;5114458;28;20201;-53
2023/05/09 05:10:55;;;;;;;22.13;13.73;;;15.40;99.90;;;;;;5115882;28;20170;-52
2023/05/09 05:13:21;;;;;;;27.93;13.80;;;15.40;99.90;;;;;;5118848;28;20276;-52
2023/05/09 05:15:47;;;;;;;18.43;13.23;;;15.50;99.90;;;;;;5119648;28;20175;-51
2023/05/09 05:18:12;;;;;;;22.73;14.20;;;15.50;99.90;;;;;;5118942;28;20201;-52
2023/05/09 05:20:41;;;;;;;23.33;13.27;;;15.60;99.90;;;;;;5117640;28;20545;-52
2023/05/09 05:23:07;;;;;;;23.27;13.47;;;15.60;99.90;;;;;;5118370;28;20194;-51
2023/05/09 05:25:33;;;;;;;20.97;14.00;;;15.70;99.90;;;;;;5117601;28;20227;-52
2023/05/09 05:27:59;;;;;;;20.47;13.33;;;15.70;99.90;;;;;;5117838;28;20190;-51
2023/05/09 05:30:24;;;;;;;18.93;12.43;;;15.70;99.90;;;;;;5117451;28;20178;-52
2023/05/09 05:32:50;;;;;;;22.03;14.63;;;15.80;99.90;;;;;;5117282;28;20205;-51
2023/05/09 05:35:16;;;;;;;23.87;13.40;;;15.80;99.90;;;;;;5117325;28;20186;-52
2023/05/09 05:37:42;;;;;;;22.73;13.33;;;15.80;99.90;;;;;;5117208;28;20584;-52
2023/05/09 05:40:08;;;;;;;20.63;12.53;;;15.90;99.90;;;;;;5117283;28;20669;-52
2023/05/09 05:42:34;;;;;;;20.47;13.50;;;15.80;99.90;;;;;;5117175;28;20243;-52
2023/05/09 05:45:03;;;;;;;20.87;13.33;;;15.90;99.90;;;;;;5117248;28;20571;-50
2023/05/09 05:47:33;;;;;;;19.50;13.47;;;15.90;99.90;;;;;;5117394;28;20601;-51
2023/05/09 05:49:59;;;;;;;21.67;13.50;;;15.90;99.90;;;;;;5117232;28;20206;-52
2023/05/09 05:52:25;;;;;;;21.03;14.10;;;16.00;99.90;;;;;;5115743;28;20251;-50
2023/05/09 05:54:54;;;;;;;23.57;14.67;;;16.00;99.90;;;;;;5117332;28;20182;-52
2023/05/09 05:57:21;;;;;;;22.83;14.80;;;16.10;99.90;;;;;;5117225;28;20223;-53
2023/05/09 05:59:47;;;;;;;22.13;13.37;;;16.20;99.90;;;;;;5116922;28;20703;-52
2023/05/09 06:02:13;;;;;;;20.60;14.13;;;16.20;99.90;;;;;;5117331;28;20221;-51
2023/05/09 06:04:40;;;;;;;19.77;13.93;;;16.20;99.90;;;;;;5117217;28;20269;-52
2023/05/09 06:07:05;;;;;;;20.00;13.80;;;16.40;99.90;;;;;;5116972;28;20178;-53
2023/05/09 06:09:31;;;;;;;19.30;13.23;;;16.40;99.90;;;;;;5116756;28;20707;-50
2023/05/09 06:11:56;;;;;;;24.27;13.80;;;16.50;99.90;;;;;;5116615;28;20614;-53
2023/05/09 06:14:22;;;;;;;23.27;13.33;;;16.60;99.90;;;;;;5116973;28;20182;-52
2023/05/09 06:16:48;;;;;;;23.57;14.90;;;16.60;99.90;;;;;;5116629;28;20185;-52
2023/05/09 06:19:13;;;;;;;21.03;14.13;;;16.60;99.90;;;;;;5117036;28;20301;-52
2023/05/09 06:21:39;;;;;;;28.60;15.00;;;16.70;99.90;;;;;;5115643;28;20170;-52
2023/05/09 06:24:05;;;;;;;22.03;14.23;;;16.70;99.90;;;;;;5116656;28;20198;-52
2023/05/09 06:26:30;;;;;;;23.40;15.50;;;16.70;99.90;;;;;;5116401;28;20186;-51
2023/05/09 06:28:56;;;;;;;23.03;15.20;;;16.80;99.90;;;;;;5117070;28;20174;-52
2023/05/09 06:31:22;;;;;;;26.40;15.97;;;16.90;99.90;;;;;;5116328;28;20261;-53
2023/05/09 06:33:47;;;;;;;26.90;15.53;;;16.90;99.90;;;;;;5116372;28;20205;-51
2023/05/09 06:36:13;;;;;;;27.03;15.97;;;17.00;99.90;;;;;;5116299;28;20285;-51
2023/05/09 06:38:39;;;;;;;28.47;16.23;;;17.00;99.90;;;;;;5116785;28;20202;-51
2023/05/09 06:41:04;;;;;;;28.93;16.40;;;17.00;99.90;;;;;;5116574;28;20175;-51
2023/05/09 06:43:30;;;;;;;26.23;15.83;;;17.00;99.90;;;;;;5116324;28;20198;-52
2023/05/09 06:45:55;;;;;;;27.43;16.37;;;17.10;99.90;;;;;;5116295;28;20182;-51
2023/05/09 06:48:22;;;;;;;26.60;16.87;;;17.10;99.90;;;;;;5115980;28;20257;-50
2023/05/09 06:50:49;;;;;;;23.57;15.57;;;17.20;99.90;;;;;;5116163;28;20182;-51
2023/05/09 06:53:14;;;;;;;26.33;16.80;;;17.30;99.90;;;;;;5115778;28;20725;-52
2023/05/09 06:55:40;;;;;;;24.47;16.30;;;17.30;99.90;;;;;;5115798;28;20202;-52
2023/05/09 06:58:06;;;;;;;29.00;16.37;;;17.50;99.90;;;;;;5115736;28;20206;-52
2023/05/09 07:00:32;;;;;;;24.23;15.60;;;17.60;99.90;;;;;;5115715;28;20258;-51
2023/05/09 07:02:58;;;;;;;26.03;15.70;;;17.70;99.90;;;;;;5115571;28;20217;-52
2023/05/09 07:05:23;;;;;;;28.90;16.67;;;17.80;99.90;;;;;;5115857;28;20530;-52
2023/05/09 07:07:49;;;;;;;23.47;14.37;;;18.00;99.90;;;;;;5115521;28;20230;-53
2023/05/09 07:10:15;;;;;;;22.80;13.67;;;18.20;99.90;;;;;;5115879;28;20167;-52
2023/05/09 07:12:41;;;;;;;19.40;12.97;;;18.30;99.90;;;;;;5115665;28;20194;-51
2023/05/09 07:15:07;;;;;;;20.20;13.53;;;18.40;99.90;;;;;;5114146;28;20259;-52
2023/05/09 07:17:33;;;;;;;17.63;11.80;;;18.60;99.90;;;;;;5115328;28;20178;-52
2023/05/09 07:19:58;;;;;;;18.30;12.70;;;18.70;99.90;;;;;;5115360;28;20642;-51
2023/05/09 07:22:24;;;;;;;15.73;11.40;;;18.80;99.90;;;;;;5115197;28;20198;-52
2023/05/09 07:24:49;;;;;;;19.87;11.27;;;19.10;99.90;;;;;;5115482;28;20174;-52
2023/05/09 07:27:15;;;;;;;17.53;11.43;;;19.30;99.90;;;;;;5115486;28;20174;-50
2023/05/09 07:29:41;;;;;;;15.23;10.13;;;19.50;99.90;;;;;;5115393;28;20262;-52
2023/05/09 07:32:07;;;;;;;18.90;11.27;;;19.70;99.90;;;;;;5115316;28;20178;-52
2023/05/09 07:34:34;;;;;;;15.90;10.13;;;19.80;99.90;;;;;;5115006;28;20186;-53
2023/05/09 07:37:00;;;;;;;16.47;9.73;;;20.00;99.90;;;;;;5115033;28;20257;-52
2023/05/09 07:39:25;;;;;;;14.93;9.20;;;20.10;99.90;;;;;;5114856;28;20302;-52
2023/05/09 07:41:51;;;;;;;11.80;8.33;;;20.10;99.90;;;;;;5115050;28;20175;-51
2023/05/09 07:44:17;;;;;;;12.93;8.70;;;20.40;99.90;;;;;;5114789;28;20182;-50
2023/05/09 07:46:42;;;;;;;11.43;8.77;;;20.60;99.90;;;;;;5114854;28;20583;-50
2023/05/09 07:49:08;;;;;;;14.90;9.33;;;20.80;99.90;;;;;;5115079;28;20530;-52
2023/05/09 07:51:33;;;;;;;14.60;9.20;;;20.90;99.90;;;;;;5114923;28;20261;-51
2023/05/09 07:53:59;;;;;;;12.60;8.67;;;21.00;99.90;;;;;;5114616;28;20194;-52
2023/05/09 07:56:25;;;;;;;12.50;8.80;;;21.00;99.90;;;;;;5114579;28;20182;-52
2023/05/09 07:58:50;;;;;;;11.63;8.80;;;21.00;99.90;;;;;;5115034;28;20201;-53
2023/05/09 08:01:16;;;;;;;17.43;8.70;;;20.90;99.90;;;;;;5113268;28;20174;-51
2023/05/09 08:03:42;;;;;;;11.77;8.73;;;21.00;99.90;;;;;;5114384;28;20189;-53
2023/05/09 08:06:07;;;;;;;13.30;8.13;;;20.90;99.90;;;;;;5115036;28;20179;-51
2023/05/09 08:08:33;;;;;;;15.83;8.53;;;20.80;99.90;;;;;;5114384;28;20659;-53
2023/05/09 08:10:58;;;;;;;13.97;8.17;;;20.80;99.90;;;;;;5114344;28;20253;-52
2023/05/09 08:13:24;;;;;;;11.80;8.17;;;20.80;99.90;;;;;;5114948;28;20274;-52
2023/05/09 08:15:50;;;;;;;13.03;9.07;;;21.00;99.90;;;;;;5114557;28;20186;-51
2023/05/09 08:18:15;;;;;;;12.23;8.03;;;21.10;99.90;;;;;;5114381;28;20209;-52
2023/05/09 08:20:41;;;;;;;10.33;7.00;;;21.30;99.90;;;;;;5114154;28;20178;-51
2023/05/09 08:23:06;;;;;;;9.20;7.00;;;21.50;99.90;;;;;;5114060;28;20194;-52
2023/05/09 08:25:32;;;;;;;9.40;6.87;;;21.60;99.90;;;;;;5114135;28;20170;-52
2023/05/09 08:27:58;;;;;;;10.87;7.13;;;21.60;99.90;;;;;;5114321;28;20182;-51
2023/05/09 08:30:23;;;;;;;11.50;7.37;;;21.70;99.90;;;;;;5114023;28;20638;-52
2023/05/09 08:32:49;;;;;;;10.20;7.50;;;21.70;99.90;;;;;;5113904;28;20285;-53
2023/05/09 08:35:15;;;;;;;10.13;7.03;;;21.60;99.90;;;;;;5113947;28;20539;-53
2023/05/09 08:37:40;;;;;;;9.50;6.40;;;21.60;99.90;;;;;;5113796;28;20643;-52
2023/05/09 08:40:06;;;;;;;10.07;5.83;;;21.70;99.90;;;;;;5114202;28;20531;-51
2023/05/09 08:42:35;;;;;;;9.40;5.90;;;21.90;99.90;;;;;;5114050;28;20198;-52
2023/05/09 08:45:08;;;;;;;6.87;4.40;;;22.10;99.90;;;;;;5114506;28;20178;-51
2023/05/09 08:47:38;;;;;;;7.17;4.00;;;22.40;99.90;;;;;;5113835;28;20642;-51
2023/05/09 08:50:04;;;;;;;5.17;4.13;;;22.60;99.90;;;;;;5113799;28;20234;-50
2023/05/09 08:52:31;;;;;;;5.77;4.20;;;22.80;99.90;;;;;;5113635;28;20190;-52
2023/05/09 08:54:57;;;;;;;5.37;3.90;;;22.90;99.90;;;;;;5114310;28;20172;-51
2023/05/09 08:57:23;;;;;;;5.10;3.83;;;23.00;99.90;;;;;;5113921;28;20511;-53
2023/05/09 08:59:51;;;;;;;5.00;3.10;;;23.00;99.90;;;;;;5113644;28;20178;-52
2023/05/09 09:02:17;;;;;;;3.87;3.37;;;23.20;99.90;;;;;;5114256;28;20192;-52
2023/05/09 09:04:43;;;;;;;6.17;3.10;;;23.30;99.90;;;;;;5114835;28;20167;-51
2023/05/09 09:07:11;;;;;;;4.00;2.63;;;23.40;99.90;;;;;;5114415;28;20262;-51
2023/05/09 09:09:42;;;;;;;2.90;2.70;;;23.50;99.90;;;;;;5114080;28;20182;-50
2023/05/09 09:12:09;;;;;;;4.50;2.77;;;23.50;99.90;;;;;;5113872;28;20614;-52
2023/05/09 09:14:38;;;;;;;2.90;2.57;;;23.40;99.90;;;;;;5113568;28;20174;-53
2023/05/09 09:17:06;;;;;;;5.13;2.97;;;23.30;99.90;;;;;;5113864;28;20242;-50
2023/05/09 09:19:34;;;;;;;3.87;2.53;;;23.20;99.90;;;;;;5113475;28;20318;-51
2023/05/09 09:22:03;;;;;;;2.47;2.27;;;23.10;99.90;;;;;;5113417;28;20182;-51
2023/05/09 09:24:30;;;;;;;4.33;2.10;;;23.10;99.90;;;;;;5113771;28;20174;-51
2023/05/09 09:26:55;;;;;;;3.83;2.37;;;23.10;99.90;;;;;;5113412;28;20170;-52
2023/05/09 09:29:22;;;;;;;2.77;1.93;;;23.10;99.90;;;;;;5113531;28;20182;-53
2023/05/09 09:31:53;;;;;;;2.50;2.30;;;23.00;99.90;;;;;;5112368;28;20579;-51
2023/05/09 09:34:21;;;;;;;3.73;2.30;;;23.00;99.90;;;;;;5114029;28;20552;-52
2023/05/09 09:36:48;;;;;;;1.77;1.60;;;23.00;99.90;;;;;;5113220;28;20281;-53
2023/05/09 09:39:14;;;;;;;1.00;0.80;;;22.90;99.90;;;;;;5113306;28;20206;-52
2023/05/09 09:41:40;;;;;;;1.37;1.20;;;22.90;99.90;;;;;;5113873;28;20186;-53
2023/05/09 09:44:10;;;;;;;1.70;1.60;;;22.90;99.90;;;;;;5113531;28;20198;-51
2023/05/09 09:46:46;;;;;;;1.93;1.77;;;23.00;99.90;;;;;;5113702;28;20499;-51
2023/05/09 09:49:13;;;;;;;1.30;1.20;;;23.10;99.90;;;;;;5113686;28;20177;-52
2023/05/09 09:51:39;;;;;;;1.83;1.30;;;23.30;99.90;;;;;;5113508;28;20200;-53
2023/05/09 09:54:10;;;;;;;1.20;1.10;;;23.40;99.90;;;;;;5113212;28;20190;-50
2023/05/09 09:56:45;;;;;;;1.40;1.13;;;23.50;99.90;;;;;;5113508;28;20187;-49
2023/05/09 09:59:23;;;;;;;2.37;1.60;;;23.50;99.90;;;;;;5116881;28;20217;-49
2023/05/09 10:02:00;;;;;;;3.57;2.27;;;23.40;99.90;;;;;;5116938;28;20162;-49
2023/05/09 10:04:28;;;;;;;1.70;1.47;;;23.20;99.90;;;;;;5117392;28;20219;-50
2023/05/09 10:07:03;;;;;;;4.03;2.50;;;23.10;99.90;;;;;;5116845;28;20557;-48
2023/05/09 10:09:29;;;;;;;2.87;2.50;;;22.90;99.90;;;;;;5117064;28;20166;-50
2023/05/09 10:11:57;;;;;;;3.80;2.23;;;22.70;99.90;;;;;;5116967;28;20639;-48
2023/05/09 10:14:24;;;;;;;3.60;1.90;;;22.60;99.90;;;;;;5116655;28;20181;-49
2023/05/09 10:16:53;;;;;;;3.27;2.97;;;22.50;99.90;;;;;;5116619;28;20239;-49
2023/05/09 10:19:20;;;;;;;5.87;3.27;;;22.50;99.90;;;;;;5116536;28;20198;-50
2023/05/09 10:21:57;;;;;;;3.33;2.83;;;22.50;99.90;;;;;;5115284;28;20635;-49
2023/05/09 10:24:28;;;;;;;5.30;3.20;;;22.50;99.90;;;;;;5116745;28;20184;-50
2023/05/09 10:27:02;;;;;;;5.57;3.10;;;22.60;99.90;;;;;;5116759;28;20178;-50
2023/05/09 10:29:31;;;;;;;3.20;2.87;;;22.70;99.90;;;;;;5116700;28;20226;-48
2023/05/09 10:31:59;;;;;;;7.10;3.30;;;22.90;99.90;;;;;;5116550;28;20201;-49
2023/05/09 10:34:27;;;;;;;5.53;3.20;;;23.20;99.90;;;;;;5116709;28;20177;-50
2023/05/09 10:36:53;;;;;;;5.10;3.10;;;23.30;99.90;;;;;;5116161;28;20194;-51
2023/05/09 10:39:21;;;;;;;3.70;2.93;;;23.40;99.90;;;;;;5116110;28;20204;-50
2023/05/09 10:41:48;;;;;;;5.53;3.40;;;23.60;99.90;;;;;;5116172;28;20631;-49
2023/05/09 10:44:14;;;;;;;3.90;2.80;;;23.80;99.90;;;;;;5114838;28;20222;-49
2023/05/09 10:46:41;;;;;;;5.23;2.90;;;23.90;99.90;;;;;;5116029;28;20171;-49
2023/05/09 10:49:07;;;;;;;4.10;2.77;;;24.00;99.90;;;;;;5116511;28;20249;-50
2023/05/09 10:51:33;;;;;;;5.70;2.37;;;24.10;99.90;;;;;;5115953;28;20175;-49
2023/05/09 10:53:59;;;;;;;2.97;2.73;;;24.20;99.90;;;;;;5116023;28;20212;-50
2023/05/09 10:56:31;;;;;;;4.53;2.90;;;24.30;99.90;;;;;;5115972;28;20183;-50
2023/05/09 10:58:58;;;;;;;4.37;2.87;;;24.40;99.90;;;;;;5115797;28;20626;-49
2023/05/09 11:01:39;;;;;;;5.00;3.20;;;24.40;99.90;;;;;;5115717;28;20303;-49
2023/05/09 11:04:13;;;;;;;4.23;3.07;;;24.50;99.90;;;;;;5115655;28;20190;-49
2023/05/09 11:06:50;;;;;;;3.10;2.20;;;24.50;99.90;;;;;;5115986;28;20564;-50
2023/05/09 11:09:32;;;;;;;4.37;2.33;;;24.70;99.90;;;;;;5115237;28;20185;-50
2023/05/09 11:12:04;;;;;;;2.63;2.07;;;24.80;99.90;;;;;;5115512;28;20174;-49
2023/05/09 11:14:47;;;;;;;3.13;2.40;;;24.90;99.90;;;;;;5115499;28;20178;-49
2023/05/09 11:17:22;;;;;;;6.27;2.43;;;24.90;99.90;;;;;;5115446;28;20178;-49
2023/05/09 11:19:50;;;;;;;5.50;2.30;;;24.70;99.90;;;;;;5115678;28;20609;-49
2023/05/09 11:22:21;;;;;;;3.73;2.40;;;24.50;99.90;;;;;;5115395;28;20194;-48
2023/05/09 11:24:49;;;;;;;2.63;2.10;;;24.20;99.90;;;;;;5115800;28;20186;-49
2023/05/09 11:27:25;;;;;;;3.23;2.00;;;24.10;99.90;;;;;;5115776;28;20182;-49
2023/05/09 11:29:57;;;;;;;4.10;2.40;;;24.00;99.90;;;;;;5115395;28;20182;-47
2023/05/09 11:32:39;;;;;;;5.70;3.60;;;23.90;99.90;;;;;;5115465;28;20194;-49
2023/05/09 11:35:16;;;;;;;4.90;3.80;;;23.70;99.90;;;;;;5115342;28;20172;-48
2023/05/09 11:37:50;;;;;;;4.13;3.47;;;23.40;99.90;;;;;;5115046;28;20194;-50
2023/05/09 11:40:17;;;;;;;2.60;2.00;;;22.80;99.90;;;;;;5115040;28;20170;-49
2023/05/09 11:42:48;;;;;;;2.63;1.90;;;22.40;99.90;;;;;;5115147;28;20195;-49
2023/05/09 11:45:15;;;;;;;4.57;2.00;;;22.10;99.90;;;;;;5115136;28;20209;-49
2023/05/09 11:47:41;;;;;;;2.20;2.10;;;21.90;99.90;;;;;;5114795;28;20204;-49
2023/05/09 11:50:11;;;;;;;2.47;2.27;;;21.80;99.90;;;;;;5115030;28;20234;-49
2023/05/09 11:52:38;;;;;;;2.53;2.33;;;21.60;99.90;;;;;;5114736;28;20194;-49
2023/05/09 11:55:12;;;;;;;3.00;2.70;;;21.50;99.90;;;;;;5114509;28;20170;-50
2023/05/09 11:57:41;;;;;;;2.87;2.33;;;21.40;99.90;;;;;;5114840;28;20151;-50
2023/05/09 12:00:09;;;;;;;3.00;2.33;;;21.30;99.90;;;;;;5114560;28;20174;-51
2023/05/09 12:02:37;;;;;;;2.87;2.50;;;21.20;99.90;;;;;;5114680;28;20193;-51
2023/05/09 12:05:11;;;;;;;2.40;2.17;;;21.20;99.90;;;;;;5114384;28;20174;-50
2023/05/09 12:07:38;;;;;;;2.50;2.30;;;21.10;99.90;;;;;;5114679;28;20181;-50
2023/05/09 12:10:12;;;;;;;3.00;2.70;;;21.00;99.90;;;;;;5114422;28;20186;-48
2023/05/09 12:12:43;;;;;;;2.93;2.73;;;21.00;99.90;;;;;;5114317;28;20189;-49
2023/05/09 12:15:09;;;;;;;3.43;3.13;;;21.00;99.90;;;;;;5114228;28;20185;-50
2023/05/09 12:17:35;;;;;;;3.43;3.13;;;20.90;99.90;;;;;;5114201;28;20168;-52
2023/05/09 12:20:03;;;;;;;3.37;3.10;;;20.90;99.90;;;;;;5113532;28;20193;-49
2023/05/09 12:22:29;;;;;;;3.80;3.43;;;20.90;99.90;;;;;;5114134;28;20201;-47
2023/05/09 12:24:55;;;;;;;4.17;3.20;;;20.80;99.90;;;;;;5114143;28;20482;-45
2023/05/09 12:27:22;;;;;;;3.90;3.27;;;20.60;99.90;;;;;;5114069;28;20185;-46
2023/05/09 12:29:48;;;;;;;4.53;3.60;;;20.50;99.90;;;;;;5114030;28;20182;-47
2023/05/09 12:32:15;;;;;;;5.80;3.80;;;20.40;99.90;;;;;;5113997;28;20310;-47
2023/05/09 12:34:43;;;;;;;4.30;3.90;;;20.30;99.90;;;;;;5114302;28;20220;-47
2023/05/09 12:37:18;;;;;;;3.87;3.57;;;20.20;99.90;;;;;;5113854;28;20274;-49